Etusivu
METAR-TAF:

METAR-TAF

Lentoasemat :

Waukesha County Airport (Crites Field)

Waukesha, Wisconsin, Yhdysvallat

Leveyspiiri: 43-02-28N, Pituuspiiri: 088-14-13W, korkeus merenpinnasta: 278 m

Tämänhetkinen sää

Tämä raportti tehtiin 24 minuuttia sitten, kello 01.45 UTC
Tuuli 6 kn lännestä
Lämpötila -1°C
Kosteus 69%
Ilmanpaine 1020 hPa
Näkyvyys: 16.1 km
selkeää

METAR: KUES 280145Z 28006KT 10SM CLR M01/M06 A3012

Aika: 20:09 (02:09 UTC)

Sääennuste

Tämä raportti tehtiin 2 tuntia ja 27 minuuttia sitten, kello 23.42 UTC
Ennuste voimassa 28. päivästä klo 00 UTC - 28. päivään klo 24 UTC
Tuuli 7 kn lännestä
Näkyvyys: 10 km
selkeää
From 28. päivästä klo 1600 UTC
Tuuli 11 kn lounaasta puuskistuen 19 kn:hen
Näkyvyys: 10 km
selkeää

TAF: KUES 272342Z 2800/2824 28007KT P6SM SKC FM281600 23011G19KT P6SM SKC

Säähavainnot ja -ennusteet yli 4000 lentoasemalta (METAR- ja TAF-raportit).

Käytössä olevat sääasemat on merkitty karttaan keltaisilla ja punaisilla pisteillä.

Aseta hiiri pisteen päälle nähdäksesi sääaseman nimen.

Klikkaa sitten nähdäksesi säähavainnot ja -ennusteet.

Kartan vaihtaminen: klikkaa mustalla rastilla varustettuja vihreitä pisteitä, niin voit zoomata sisään; viivalla varustettua vihreää pistettä, niin voit zoomata ulos tai vihreitä nuolia, niin pääset viereisille kartoille.


METAR-TAF: